Time;durP1;ratioP1;P1;durP2;ratioP2;P2;SDS_P1;SDS_P2;PMS_P1;PMS_P2;Temp;Humidity;BMP_temperature;BMP_pressure;BME280_temperature;BME280_humidity;BME280_pressure;Samples;Min_cycle;Max_cycle;Signal;HPM_P1;HPM_P2
2024/01/22 05:06:33;;;;;;;;;73.50;57.50;;;;;;;;5847871;39;10000001;-54
2024/01/22 10:59:21;;;;;;;;;80.25;64.00;;;;;;;;6450757;36;5002088;-65
2024/01/22 11:05:32;;;;;;;;;73.67;59.67;;;;;;;;6490961;46;9053;-63
2024/01/22 11:11:40;;;;;;;;;86.33;65.33;;;;;;;;6492893;39;8988;-64
2024/01/22 11:17:47;;;;;;;;;80.67;64.33;;;;;;;;6492613;39;8892;-62
2024/01/22 11:24:14;;;;;;;;;84.67;67.00;;;;;;;;6490334;39;8919;-63
2024/01/22 11:30:29;;;;;;;;;88.00;66.00;;;;;;;;6491942;39;8985;-63
2024/01/22 11:36:56;;;;;;;;;82.00;65.00;;;;;;;;6492157;39;8984;-61
2024/01/22 11:43:00;;;;;;;;;76.67;63.00;;;;;;;;6492631;39;8824;-62
2024/01/22 11:49:09;;;;;;;;;78.33;63.33;;;;;;;;6491078;31;9060;-61
2024/01/22 11:55:14;;;;;;;;;80.33;66.00;;;;;;;;6491945;46;8875;-63
2024/01/22 12:01:20;;;;;;;;;83.33;63.00;;;;;;;;6492258;39;8929;-63
2024/01/22 12:07:30;;;;;;;;;78.33;62.67;;;;;;;;6491627;46;8906;-61
2024/01/22 12:13:40;;;;;;;;;86.33;66.33;;;;;;;;6491920;39;8885;-61
2024/01/22 12:19:45;;;;;;;;;75.67;61.00;;;;;;;;6490118;39;8870;-63
2024/01/22 12:25:48;;;;;;;;;70.33;56.33;;;;;;;;6491594;31;9096;-62
2024/01/22 12:32:04;;;;;;;;;72.00;57.67;;;;;;;;6489602;39;8866;-62
2024/01/22 12:38:12;;;;;;;;;66.67;54.67;;;;;;;;6491250;39;8912;-62
2024/01/22 12:44:15;;;;;;;;;72.33;57.00;;;;;;;;6489991;46;8918;-63
2024/01/22 12:50:18;;;;;;;;;77.00;60.00;;;;;;;;6488101;46;8890;-61
2024/01/22 12:56:21;;;;;;;;;62.00;47.00;;;;;;;;6489947;31;9069;-63
2024/01/22 13:02:24;;;;;;;;;57.67;44.00;;;;;;;;6490445;31;8941;-63
2024/01/22 13:08:29;;;;;;;;;66.00;51.00;;;;;;;;6489586;46;9024;-63
2024/01/22 13:14:37;;;;;;;;;64.33;51.67;;;;;;;;6490037;31;9658;-62
2024/01/22 13:20:40;;;;;;;;;66.00;50.33;;;;;;;;6490559;39;9008;-63
2024/01/22 13:26:43;;;;;;;;;69.33;53.00;;;;;;;;6489590;39;8929;-63
2024/01/22 13:32:47;;;;;;;;;66.00;50.67;;;;;;;;6489685;46;9094;-62
2024/01/22 13:38:53;;;;;;;;;64.00;48.00;;;;;;;;6489837;39;8920;-64
2024/01/22 13:44:56;;;;;;;;;51.33;41.67;;;;;;;;6492779;39;8913;-64
2024/01/22 13:51:01;;;;;;;;;66.67;52.33;;;;;;;;6491237;39;8921;-63
2024/01/22 13:57:04;;;;;;;;;47.33;43.67;;;;;;;;6491960;39;8830;-62
2024/01/22 14:03:08;;;;;;;;;69.00;50.33;;;;;;;;6491399;46;8886;-62
2024/01/22 14:09:11;;;;;;;;;57.33;45.00;;;;;;;;6491826;39;8885;-60
2024/01/22 14:15:14;;;;;;;;;59.33;49.33;;;;;;;;6492539;46;8890;-62
2024/01/22 14:21:18;;;;;;;;;62.67;47.67;;;;;;;;6492822;31;8924;-64
2024/01/22 14:27:22;;;;;;;;;39.33;34.67;;;;;;;;6481936;46;8910;-62
2024/01/22 14:33:24;;;;;;;;;1.00;1.00;;;;;;;;6491378;31;9520;-61
2024/01/22 14:39:30;;;;;;;;;56.67;47.33;;;;;;;;6491799;31;8859;-61
2024/01/22 14:45:34;;;;;;;;;52.67;48.00;;;;;;;;6491866;39;8886;-61
2024/01/22 14:51:36;;;;;;;;;65.33;49.00;;;;;;;;6491633;46;8908;-62
2024/01/22 14:57:39;;;;;;;;;9.00;6.00;;;;;;;;6492467;39;8882;-63
2024/01/22 15:03:42;;;;;;;;;24.67;20.33;;;;;;;;6490983;39;8921;-62
2024/01/22 15:09:48;;;;;;;;;51.33;45.33;;;;;;;;6489302;39;8922;-63
2024/01/22 15:15:50;;;;;;;;;55.00;48.00;;;;;;;;6489086;39;8854;-60
2024/01/22 15:21:58;;;;;;;;;25.33;20.00;;;;;;;;6489856;39;8968;-63
2024/01/22 15:28:06;;;;;;;;;22.33;18.33;;;;;;;;6491673;39;9040;-62
2024/01/22 15:34:13;;;;;;;;;23.00;21.67;;;;;;;;6491161;39;8846;-61
2024/01/22 15:40:18;;;;;;;;;20.33;16.00;;;;;;;;6489616;39;8916;-63
2024/01/22 15:46:23;;;;;;;;;20.67;13.67;;;;;;;;6487796;39;9583;-62
2024/01/22 15:52:26;;;;;;;;;22.00;17.33;;;;;;;;6489838;39;8846;-62
2024/01/22 15:58:30;;;;;;;;;66.33;49.00;;;;;;;;6492723;39;8850;-64
2024/01/22 16:04:33;;;;;;;;;13.67;12.00;;;;;;;;6491335;39;8933;-61
2024/01/22 16:10:37;;;;;;;;;14.33;12.00;;;;;;;;6490889;46;8882;-63
2024/01/22 16:16:40;;;;;;;;;30.33;27.33;;;;;;;;6491157;39;9605;-62
2024/01/22 16:22:42;;;;;;;;;22.33;16.00;;;;;;;;6488735;39;8850;-64
2024/01/22 16:28:46;;;;;;;;;24.00;18.33;;;;;;;;6489708;39;8914;-61
2024/01/22 16:34:49;;;;;;;;;16.67;15.67;;;;;;;;6490248;46;8905;-63
2024/01/22 16:40:52;;;;;;;;;16.33;12.67;;;;;;;;6490685;39;8866;-63
2024/01/22 16:46:56;;;;;;;;;54.00;46.00;;;;;;;;6491185;31;8866;-62
2024/01/22 16:53:00;;;;;;;;;16.33;14.33;;;;;;;;6490289;39;8877;-61
2024/01/22 16:59:03;;;;;;;;;21.67;16.67;;;;;;;;6491531;31;8818;-63
2024/01/22 17:05:06;;;;;;;;;47.33;42.33;;;;;;;;6489751;39;8934;-64
2024/01/22 17:11:10;;;;;;;;;44.00;43.33;;;;;;;;6490224;39;8910;-59
2024/01/22 17:17:13;;;;;;;;;54.67;45.00;;;;;;;;6487993;39;8944;-58
2024/01/22 17:23:17;;;;;;;;;22.00;19.00;;;;;;;;6488448;46;8894;-58
2024/01/22 17:29:21;;;;;;;;;18.00;14.00;;;;;;;;6491491;39;8970;-58
2024/01/22 17:35:24;;;;;;;;;22.00;19.00;;;;;;;;6490098;47;8940;-59
2024/01/22 17:41:33;;;;;;;;;56.67;48.00;;;;;;;;6490696;31;8967;-59
2024/01/22 17:47:35;;;;;;;;;54.50;45.25;;;;;;;;6490305;47;8933;-60
2024/01/22 17:53:38;;;;;;;;;63.50;48.25;;;;;;;;6489757;47;8935;-60
2024/01/22 17:59:43;;;;;;;;;63.33;46.33;;;;;;;;6490651;39;8850;-59
2024/01/22 18:05:47;;;;;;;;;26.33;15.33;;;;;;;;6489856;47;8934;-59
2024/01/22 18:11:51;;;;;;;;;12.33;12.33;;;;;;;;6489722;47;9032;-58
2024/01/22 18:17:53;;;;;;;;;18.33;18.00;;;;;;;;6490847;39;8870;-56
2024/01/22 18:23:56;;;;;;;;;21.33;15.00;;;;;;;;6490080;39;8882;-57
2024/01/22 18:29:58;;;;;;;;;17.00;10.00;;;;;;;;6491544;39;9595;-58
2024/01/22 18:36:04;;;;;;;;;23.33;18.00;;;;;;;;6490889;31;9572;-56
2024/01/22 18:42:06;;;;;;;;;18.33;13.00;;;;;;;;6490382;46;8896;-58
2024/01/22 18:48:09;;;;;;;;;12.33;6.67;;;;;;;;6490850;46;8914;-58
2024/01/22 18:54:13;;;;;;;;;49.00;45.75;;;;;;;;6489817;39;8960;-58
2024/01/22 19:00:17;;;;;;;;;58.25;48.00;;;;;;;;6491244;39;8952;-59
2024/01/22 19:06:20;;;;;;;;;42.67;37.67;;;;;;;;6489777;39;9012;-56
2024/01/22 19:12:23;;;;;;;;;47.00;41.00;;;;;;;;6490275;46;8897;-59
2024/01/22 19:18:25;;;;;;;;;58.75;45.25;;;;;;;;6491026;39;8901;-59
2024/01/22 19:24:29;;;;;;;;;61.00;45.25;;;;;;;;6489736;39;8906;-60
2024/01/22 19:30:32;;;;;;;;;46.67;40.67;;;;;;;;6490844;46;8948;-57
2024/01/22 19:36:34;;;;;;;;;52.25;42.50;;;;;;;;6490387;39;9081;-57
2024/01/22 19:42:37;;;;;;;;;47.00;43.50;;;;;;;;6490651;39;8901;-61
2024/01/22 19:48:40;;;;;;;;;42.00;35.50;;;;;;;;6491608;31;8854;-57
2024/01/22 19:54:43;;;;;;;;;47.00;41.75;;;;;;;;6489781;31;8885;-59
2024/01/22 20:00:46;;;;;;;;;55.75;40.00;;;;;;;;6490939;39;8886;-58
2024/01/22 20:06:49;;;;;;;;;52.25;45.00;;;;;;;;6490057;39;9551;-58
2024/01/22 20:12:51;;;;;;;;;46.50;40.25;;;;;;;;6489397;46;8861;-58
2024/01/22 20:18:54;;;;;;;;;54.50;44.00;;;;;;;;6492065;31;8850;-58
2024/01/22 20:24:56;;;;;;;;;47.33;42.33;;;;;;;;6490568;39;8898;-57
2024/01/22 20:30:59;;;;;;;;;45.50;33.25;;;;;;;;6490423;39;8930;-56
2024/01/22 20:37:03;;;;;;;;;48.00;39.50;;;;;;;;6490049;46;8882;-58
2024/01/22 20:43:05;;;;;;;;;18.33;16.67;;;;;;;;6489992;39;8862;-55
2024/01/22 20:49:07;;;;;;;;;10.67;7.33;;;;;;;;6491328;31;9123;-55
2024/01/22 20:55:09;;;;;;;;;22.67;18.67;;;;;;;;6490549;39;8890;-59
2024/01/22 21:01:15;;;;;;;;;19.33;19.00;;;;;;;;6490962;39;9494;-59
2024/01/22 21:07:25;;;;;;;;;19.00;12.33;;;;;;;;6489301;39;9130;-57
2024/01/22 21:13:27;;;;;;;;;24.67;22.33;;;;;;;;6490497;31;8909;-57
2024/01/22 21:19:34;;;;;;;;;28.67;24.33;;;;;;;;6493152;39;9015;-58
2024/01/22 21:25:36;;;;;;;;;7.67;4.00;;;;;;;;6493134;31;8836;-58
2024/01/22 21:31:39;;;;;;;;;24.67;18.67;;;;;;;;6493241;31;8840;-58
2024/01/22 21:37:41;;;;;;;;;21.33;16.33;;;;;;;;6492006;39;8840;-59
2024/01/22 21:43:43;;;;;;;;;17.33;15.33;;;;;;;;6491824;39;8994;-58
2024/01/22 21:49:47;;;;;;;;;21.67;15.67;;;;;;;;6493001;39;8860;-57
2024/01/22 21:55:49;;;;;;;;;15.67;13.00;;;;;;;;6491552;47;8879;-57
2024/01/22 22:01:52;;;;;;;;;68.50;52.00;;;;;;;;6494134;39;8864;-59
2024/01/22 22:07:56;;;;;;;;;24.75;20.50;;;;;;;;6493383;36;9585;-57
2024/01/22 22:13:59;;;;;;;;;10.00;10.00;;;;;;;;6491464;31;8945;-57
2024/01/22 22:20:01;;;;;;;;;13.33;12.00;;;;;;;;6492975;46;8966;-57
2024/01/22 22:26:04;;;;;;;;;23.00;17.33;;;;;;;;6491823;46;8978;-57
2024/01/22 22:32:06;;;;;;;;;63.75;46.50;;;;;;;;6492831;46;8846;-58
2024/01/22 22:38:08;;;;;;;;;18.00;18.00;;;;;;;;6492083;46;8950;-58
2024/01/22 22:44:10;;;;;;;;;18.33;16.00;;;;;;;;6491988;46;8895;-58
2024/01/22 22:50:14;;;;;;;;;21.00;19.00;;;;;;;;6493119;39;8966;-57
2024/01/22 22:56:16;;;;;;;;;65.25;49.25;;;;;;;;6491761;46;8885;-57
2024/01/22 23:02:18;;;;;;;;;63.25;48.75;;;;;;;;6492703;39;8937;-58
2024/01/22 23:08:22;;;;;;;;;61.25;50.75;;;;;;;;6491088;39;8984;-55
2024/01/22 23:14:26;;;;;;;;;58.75;46.25;;;;;;;;6490580;39;8915;-57
2024/01/22 23:20:30;;;;;;;;;24.00;17.00;;;;;;;;6492868;39;8908;-58
2024/01/22 23:26:32;;;;;;;;;69.00;52.50;;;;;;;;6492449;31;8903;-57
2024/01/22 23:32:36;;;;;;;;;73.25;56.50;;;;;;;;6492328;39;8932;-57
2024/01/22 23:38:38;;;;;;;;;59.75;50.00;;;;;;;;6491383;46;8887;-56
2024/01/22 23:44:40;;;;;;;;;62.00;51.00;;;;;;;;6491251;31;8890;-57
2024/01/22 23:50:43;;;;;;;;;21.00;19.00;;;;;;;;6491892;39;8864;-57
2024/01/22 23:56:48;;;;;;;;;22.75;20.50;;;;;;;;6491792;39;8992;-57
